createdAt,value
2023-06-29T00:01:28.675Z,12.40
2023-06-29T00:03:55.292Z,11.90
2023-06-29T00:06:21.900Z,12.18
2023-06-29T00:08:48.809Z,12.88
2023-06-29T00:11:15.362Z,12.85
2023-06-29T00:13:42.605Z,13.25
2023-06-29T00:16:09.240Z,12.57
2023-06-29T00:18:36.125Z,13.20
2023-06-29T00:21:04.652Z,12.98
2023-06-29T00:23:33.279Z,12.50
2023-06-29T00:26:00.237Z,13.13
2023-06-29T00:28:26.708Z,13.30
2023-06-29T00:30:56.093Z,12.60
2023-06-29T00:33:22.733Z,12.88
2023-06-29T00:35:49.585Z,12.05
2023-06-29T00:38:16.246Z,11.90
2023-06-29T00:40:42.802Z,11.93
2023-06-29T00:43:09.447Z,12.32
2023-06-29T00:45:36.974Z,12.52
2023-06-29T00:48:05.414Z,13.20
2023-06-29T00:50:34.360Z,13.18
2023-06-29T00:53:00.936Z,12.43
2023-06-29T00:55:28.274Z,13.13
2023-06-29T00:57:54.849Z,12.90
2023-06-29T01:00:21.444Z,12.70
2023-06-29T01:02:50.028Z,13.20
2023-06-29T01:05:17.424Z,13.57
2023-06-29T01:08:00.330Z,12.88
2023-06-29T01:10:30.485Z,11.98
2023-06-29T01:13:00.424Z,12.80
2023-06-29T01:15:27.506Z,12.50
2023-06-29T01:17:56.665Z,13.25
2023-06-29T01:20:27.043Z,12.70
2023-06-29T01:23:00.662Z,12.07
2023-06-29T01:25:31.008Z,13.23
2023-06-29T01:27:57.593Z,13.18
2023-06-29T01:30:24.542Z,13.60
2023-06-29T01:32:51.163Z,14.10
2023-06-29T01:35:17.758Z,12.70
2023-06-29T01:37:57.755Z,12.52
2023-06-29T01:40:28.924Z,12.60
2023-06-29T01:42:58.069Z,13.70
2023-06-29T01:45:26.007Z,13.75
2023-06-29T01:47:56.797Z,13.32
2023-06-29T01:50:24.092Z,14.38
2023-06-29T01:52:50.799Z,14.80
2023-06-29T01:55:17.418Z,13.63
2023-06-29T01:57:44.143Z,13.48
2023-06-29T02:00:11.357Z,14.43
2023-06-29T02:02:40.818Z,13.50
2023-06-29T02:05:08.621Z,14.45
2023-06-29T02:07:35.218Z,14.25
2023-06-29T02:10:01.825Z,14.23
2023-06-29T02:12:28.467Z,14.35
2023-06-29T02:14:54.996Z,14.82
2023-06-29T02:17:21.618Z,14.73
2023-06-29T02:19:48.235Z,14.65
2023-06-29T02:22:14.860Z,14.63
2023-06-29T02:24:41.537Z,14.80
2023-06-29T02:27:08.037Z,14.00
2023-06-29T02:29:35.024Z,14.80
2023-06-29T02:32:01.573Z,15.05
2023-06-29T02:34:28.172Z,14.88
2023-06-29T02:36:55.282Z,15.80
2023-06-29T02:39:24.876Z,15.90
2023-06-29T02:41:51.617Z,16.05
2023-06-29T02:44:18.290Z,15.80
2023-06-29T02:46:45.357Z,15.23
2023-06-29T02:49:13.064Z,15.50
2023-06-29T02:51:39.859Z,16.48
2023-06-29T02:54:08.972Z,15.82
2023-06-29T02:56:35.528Z,15.82
2023-06-29T02:59:04.170Z,15.90
2023-06-29T03:01:31.183Z,15.95
2023-06-29T03:03:58.264Z,16.08
2023-06-29T03:06:26.602Z,15.73
2023-06-29T03:08:53.234Z,15.57
2023-06-29T03:11:19.787Z,15.75
2023-06-29T03:13:47.620Z,15.40
2023-06-29T03:16:14.241Z,15.50
2023-06-29T03:18:40.812Z,16.20
2023-06-29T03:21:16.173Z,16.15
2023-06-29T03:23:44.224Z,16.42
2023-06-29T03:26:10.742Z,15.70
2023-06-29T03:28:37.362Z,15.88
2023-06-29T03:31:04.045Z,17.02
2023-06-29T03:33:30.732Z,17.23
2023-06-29T03:35:57.253Z,16.60
2023-06-29T03:38:23.893Z,16.50
2023-06-29T03:40:50.441Z,17.27
2023-06-29T03:43:17.021Z,15.90
2023-06-29T03:45:43.904Z,17.33
2023-06-29T03:48:10.728Z,16.23
2023-06-29T03:50:37.330Z,16.75
2023-06-29T03:53:04.034Z,17.42
2023-06-29T03:55:31.046Z,17.02
2023-06-29T03:57:58.879Z,16.23
2023-06-29T04:00:25.946Z,16.48
2023-06-29T04:02:52.670Z,16.13
2023-06-29T04:05:19.608Z,16.45
2023-06-29T04:07:46.167Z,16.55
2023-06-29T04:10:12.775Z,16.33
2023-06-29T04:12:39.767Z,16.15
2023-06-29T04:15:06.901Z,17.40
2023-06-29T04:17:33.446Z,15.90
2023-06-29T04:19:59.955Z,16.95
2023-06-29T04:22:26.516Z,17.08
2023-06-29T04:24:53.126Z,15.85
2023-06-29T04:27:19.799Z,17.52
2023-06-29T04:29:46.376Z,16.88
2023-06-29T04:32:13.099Z,17.00
2023-06-29T04:34:39.706Z,17.10
2023-06-29T04:37:07.591Z,17.27
2023-06-29T04:39:34.268Z,17.55
2023-06-29T04:42:04.167Z,17.23
2023-06-29T04:44:33.785Z,18.02
2023-06-29T04:47:01.225Z,17.25
2023-06-29T04:49:33.033Z,17.77
2023-06-29T04:52:00.927Z,18.05
2023-06-29T04:54:28.585Z,17.67
2023-06-29T04:56:57.417Z,18.40
2023-06-29T04:59:25.423Z,17.88
2023-06-29T05:01:52.115Z,19.02
2023-06-29T05:04:18.854Z,17.55
2023-06-29T05:06:45.597Z,18.27
2023-06-29T05:09:12.299Z,17.45
2023-06-29T05:11:38.867Z,18.63
2023-06-29T05:14:05.400Z,18.73
2023-06-29T05:16:31.970Z,18.85
2023-06-29T05:18:58.545Z,18.15
2023-06-29T05:21:27.254Z,17.73
2023-06-29T05:23:53.899Z,17.98
2023-06-29T05:26:20.436Z,18.33
2023-06-29T05:28:56.271Z,18.92
2023-06-29T05:31:31.794Z,19.17
2023-06-29T05:33:58.457Z,17.63
2023-06-29T05:36:24.999Z,18.88
2023-06-29T05:38:51.500Z,17.35
2023-06-29T05:41:17.987Z,18.70
2023-06-29T05:43:44.839Z,16.88
2023-06-29T05:46:11.792Z,17.10
2023-06-29T05:48:38.395Z,18.98
2023-06-29T05:51:05.090Z,17.45
2023-06-29T05:53:32.582Z,17.27
2023-06-29T05:55:59.280Z,17.55
2023-06-29T05:58:25.781Z,18.35
2023-06-29T06:00:52.964Z,17.83
2023-06-29T06:03:21.505Z,18.08
2023-06-29T06:05:48.139Z,17.85
2023-06-29T06:08:15.837Z,18.05
2023-06-29T06:10:43.117Z,18.90
2023-06-29T06:13:10.391Z,18.90
2023-06-29T06:15:37.047Z,18.00
2023-06-29T06:18:03.721Z,18.20
2023-06-29T06:20:30.454Z,18.30
2023-06-29T06:22:57.085Z,18.48
2023-06-29T06:25:23.594Z,19.25
2023-06-29T06:27:50.217Z,19.55
2023-06-29T06:30:16.746Z,18.60
2023-06-29T06:32:43.373Z,18.50
2023-06-29T06:35:10.229Z,18.75
2023-06-29T06:37:37.586Z,18.85
2023-06-29T06:40:08.996Z,18.88
2023-06-29T06:45:06.548Z,18.25
2023-06-29T06:47:37.248Z,18.48
2023-06-29T06:50:05.334Z,18.90
2023-06-29T06:52:32.079Z,18.13
2023-06-29T06:54:58.615Z,19.52
2023-06-29T06:57:25.214Z,19.40
2023-06-29T06:59:51.845Z,18.60
2023-06-29T07:02:18.537Z,18.25
2023-06-29T07:04:45.244Z,19.15
2023-06-29T07:07:11.807Z,18.45
2023-06-29T07:09:38.738Z,18.27
2023-06-29T07:12:05.788Z,18.35
2023-06-29T07:14:32.971Z,18.90
2023-06-29T07:16:59.731Z,17.55
2023-06-29T07:24:25.361Z,18.58
2023-06-29T07:26:51.949Z,18.33
2023-06-29T07:29:18.526Z,19.08
2023-06-29T07:31:45.225Z,18.73
2023-06-29T07:34:11.795Z,18.15
2023-06-29T07:36:40.402Z,18.23
2023-06-29T07:39:07.064Z,18.40
2023-06-29T07:41:33.769Z,18.80
2023-06-29T07:44:01.100Z,18.15
2023-06-29T07:46:28.173Z,17.95
2023-06-29T07:48:56.001Z,19.15
2023-06-29T07:51:23.024Z,19.08
2023-06-29T07:53:51.434Z,19.20
2023-06-29T07:56:18.700Z,18.63
2023-06-29T07:58:45.871Z,19.20
2023-06-29T08:01:13.157Z,19.05
2023-06-29T08:03:55.844Z,18.13
2023-06-29T08:08:57.349Z,19.48
2023-06-29T08:11:24.287Z,19.38
2023-06-29T08:13:50.851Z,18.40
2023-06-29T08:16:17.770Z,20.13
2023-06-29T08:18:44.571Z,19.38
2023-06-29T08:21:11.954Z,19.67
2023-06-29T08:23:38.641Z,19.42
2023-06-29T08:26:05.630Z,19.85
2023-06-29T08:28:32.286Z,19.90
2023-06-29T08:30:58.793Z,19.88
2023-06-29T08:33:25.856Z,20.40
2023-06-29T08:35:52.784Z,19.67
2023-06-29T08:38:19.783Z,21.02
2023-06-29T08:40:50.416Z,21.05
2023-06-29T08:43:18.758Z,20.70
2023-06-29T08:45:46.928Z,21.13
2023-06-29T08:48:15.165Z,21.17
2023-06-29T08:51:02.065Z,20.50
2023-06-29T08:53:29.121Z,20.02
2023-06-29T08:55:57.496Z,20.92
2023-06-29T08:58:24.825Z,20.77
2023-06-29T09:00:53.767Z,20.75
2023-06-29T09:03:22.780Z,19.92
2023-06-29T09:05:49.447Z,20.52
2023-06-29T09:08:16.028Z,19.60
2023-06-29T09:10:42.846Z,21.17
2023-06-29T09:13:10.586Z,19.80
2023-06-29T09:15:39.561Z,20.08
2023-06-29T09:18:06.913Z,20.10
2023-06-29T09:20:37.095Z,19.38
2023-06-29T09:23:07.232Z,19.77
2023-06-29T09:25:35.550Z,19.83
2023-06-29T09:28:06.879Z,19.45
2023-06-29T09:33:12.375Z,19.50
2023-06-29T09:35:46.023Z,20.13
2023-06-29T09:38:13.786Z,19.05
2023-06-29T09:40:54.089Z,19.58
2023-06-29T09:43:29.179Z,19.58
2023-06-29T09:46:13.770Z,19.00
2023-06-29T09:51:21.958Z,18.77
2023-06-29T09:53:48.799Z,18.30
2023-06-29T09:56:17.341Z,19.20
2023-06-29T09:58:44.275Z,18.38
2023-06-29T10:01:10.978Z,17.75
2023-06-29T10:03:37.673Z,19.45
2023-06-29T10:06:14.756Z,17.45
2023-06-29T10:08:43.287Z,17.63
2023-06-29T10:11:09.907Z,17.08
2023-06-29T10:13:50.623Z,17.38
2023-06-29T10:16:22.223Z,17.20
2023-06-29T10:18:51.971Z,17.75
2023-06-29T10:21:18.709Z,17.23
2023-06-29T10:23:46.629Z,17.70
2023-06-29T10:26:13.804Z,17.63
2023-06-29T10:28:40.981Z,18.33
2023-06-29T10:31:07.641Z,16.77
2023-06-29T10:33:46.841Z,17.63
2023-06-29T10:36:15.006Z,16.23
2023-06-29T10:38:41.871Z,17.92
2023-06-29T10:41:08.571Z,18.25
2023-06-29T10:43:57.371Z,18.05
2023-06-29T10:46:45.872Z,17.17
2023-06-29T10:49:26.561Z,16.88
2023-06-29T10:52:16.805Z,16.83
2023-06-29T10:54:43.354Z,17.15
2023-06-29T10:57:11.472Z,16.73
2023-06-29T10:59:39.769Z,16.90
2023-06-29T11:02:08.934Z,17.38
2023-06-29T11:04:35.672Z,16.48
2023-06-29T11:07:08.093Z,17.65
2023-06-29T11:09:35.490Z,16.90
2023-06-29T11:12:02.061Z,16.60
2023-06-29T11:14:29.749Z,15.52
2023-06-29T11:16:56.669Z,16.73
2023-06-29T11:19:28.600Z,16.73
2023-06-29T11:21:55.754Z,16.63
2023-06-29T11:24:23.111Z,17.90
2023-06-29T11:26:49.805Z,18.52
2023-06-29T11:29:16.458Z,17.88
2023-06-29T11:31:43.003Z,17.25
2023-06-29T11:34:13.822Z,16.77
2023-06-29T11:36:40.472Z,17.08
2023-06-29T11:39:11.690Z,17.00
2023-06-29T11:44:05.528Z,16.35
2023-06-29T11:46:34.475Z,17.35
2023-06-29T11:49:04.411Z,17.55
2023-06-29T11:51:39.857Z,18.65
2023-06-29T11:54:08.444Z,17.73
2023-06-29T11:56:37.189Z,18.08
2023-06-29T11:59:11.276Z,17.45
2023-06-29T12:01:39.699Z,16.40
2023-06-29T12:04:16.000Z,17.27
2023-06-29T12:06:57.582Z,17.38
2023-06-29T12:09:31.661Z,17.60
2023-06-29T12:12:03.431Z,17.45
2023-06-29T12:14:33.798Z,16.67
2023-06-29T12:19:35.585Z,16.20
2023-06-29T12:22:02.955Z,16.17
2023-06-29T12:24:30.133Z,17.23
2023-06-29T12:26:57.694Z,17.10
2023-06-29T12:29:24.269Z,16.52
2023-06-29T12:31:50.883Z,17.25
2023-06-29T12:34:17.495Z,15.52
2023-06-29T12:36:44.087Z,15.70
2023-06-29T12:39:10.580Z,19.20
2023-06-29T12:41:37.178Z,16.15
2023-06-29T12:44:03.866Z,15.65
2023-06-29T12:46:32.640Z,15.20
2023-06-29T12:49:00.858Z,16.00
2023-06-29T12:51:29.360Z,15.35
2023-06-29T12:53:56.789Z,14.73
2023-06-29T12:56:23.327Z,15.45
2023-06-29T12:58:49.895Z,15.20
2023-06-29T13:01:16.461Z,15.00
2023-06-29T13:03:43.127Z,12.90
2023-06-29T13:06:09.753Z,13.10
2023-06-29T13:08:36.320Z,12.05
2023-06-29T13:11:03.323Z,11.50
2023-06-29T13:13:31.222Z,11.75
2023-06-29T13:15:57.774Z,11.32
2023-06-29T13:18:25.757Z,12.15
2023-06-29T13:20:52.531Z,11.43
2023-06-29T13:23:19.116Z,12.13
2023-06-29T13:25:45.767Z,11.57
2023-06-29T13:28:13.059Z,11.85
2023-06-29T13:30:40.971Z,11.20
2023-06-29T13:33:08.339Z,12.40
2023-06-29T13:35:34.921Z,11.68
2023-06-29T13:38:01.533Z,11.88
2023-06-29T13:40:29.360Z,11.70
2023-06-29T13:42:56.198Z,12.30
2023-06-29T13:45:22.852Z,12.35
2023-06-29T13:47:58.335Z,12.05
2023-06-29T13:50:28.590Z,12.38
2023-06-29T13:53:02.704Z,11.63
2023-06-29T13:55:29.577Z,11.52
2023-06-29T13:57:56.095Z,11.40
2023-06-29T14:00:22.832Z,12.13
2023-06-29T14:02:51.192Z,11.60
2023-06-29T14:05:18.549Z,12.75
2023-06-29T14:07:45.049Z,11.90
2023-06-29T14:10:11.642Z,12.40
2023-06-29T14:12:38.140Z,13.30
2023-06-29T14:15:05.156Z,11.95
2023-06-29T14:17:31.701Z,11.57
2023-06-29T14:19:58.262Z,11.20
2023-06-29T14:22:24.769Z,11.38
2023-06-29T14:24:51.806Z,10.70
2023-06-29T14:27:19.944Z,11.75
2023-06-29T14:29:46.533Z,10.90
2023-06-29T14:32:14.690Z,11.70
2023-06-29T14:34:41.380Z,10.82
2023-06-29T14:37:08.320Z,11.70
2023-06-29T14:39:34.826Z,11.60
2023-06-29T14:42:02.820Z,11.27
2023-06-29T14:44:29.364Z,11.98
2023-06-29T14:46:57.131Z,11.73
2023-06-29T14:49:23.711Z,11.73
2023-06-29T14:51:50.265Z,12.20
2023-06-29T14:54:20.493Z,13.52
2023-06-29T14:56:47.002Z,13.32
2023-06-29T14:59:13.714Z,13.70
2023-06-29T15:01:40.408Z,13.73
2023-06-29T15:04:07.373Z,13.77
2023-06-29T15:06:34.026Z,13.90
2023-06-29T15:09:00.559Z,14.02
2023-06-29T15:11:27.276Z,13.88
2023-06-29T15:13:54.930Z,14.55
2023-06-29T15:16:21.532Z,14.75
2023-06-29T15:18:59.179Z,13.63
2023-06-29T15:21:27.076Z,13.10
2023-06-29T15:23:53.797Z,11.45
2023-06-29T15:26:20.350Z,10.68
2023-06-29T15:28:46.918Z,9.23
2023-06-29T15:31:13.484Z,8.65
2023-06-29T15:33:40.038Z,8.52
2023-06-29T15:36:06.538Z,8.02
2023-06-29T15:38:34.721Z,7.82
2023-06-29T15:41:02.134Z,7.25
2023-06-29T15:43:28.774Z,6.93
2023-06-29T15:45:55.337Z,5.80
2023-06-29T15:48:21.947Z,5.50
2023-06-29T15:50:48.723Z,4.72
2023-06-29T15:53:15.391Z,4.47
2023-06-29T15:55:41.948Z,3.63
2023-06-29T15:58:08.487Z,3.78
2023-06-29T16:00:35.045Z,3.40
2023-06-29T16:03:01.747Z,3.50
2023-06-29T16:05:28.684Z,2.78
2023-06-29T16:07:55.182Z,3.13
2023-06-29T16:10:21.823Z,2.60
2023-06-29T16:12:48.392Z,3.20
2023-06-29T16:15:15.029Z,2.40
2023-06-29T16:17:41.716Z,2.55
2023-06-29T16:20:09.401Z,2.63
2023-06-29T16:22:38.100Z,2.08
2023-06-29T16:25:08.407Z,1.77
2023-06-29T16:27:34.945Z,1.50
2023-06-29T16:30:01.607Z,1.33
2023-06-29T16:32:28.288Z,1.25
2023-06-29T16:34:54.928Z,1.27
2023-06-29T16:37:21.508Z,1.13
2023-06-29T16:39:48.046Z,1.00
2023-06-29T16:42:15.476Z,1.20
2023-06-29T16:44:42.077Z,1.08
2023-06-29T16:47:08.600Z,1.08
2023-06-29T16:49:35.234Z,1.00
2023-06-29T16:52:01.844Z,0.88
2023-06-29T16:54:28.470Z,0.90
2023-06-29T16:56:55.048Z,0.60
2023-06-29T16:59:21.598Z,0.73
2023-06-29T17:01:48.346Z,0.82
2023-06-29T17:04:15.243Z,0.70
2023-06-29T17:06:41.835Z,0.60
2023-06-29T17:09:08.330Z,0.68
2023-06-29T17:11:34.853Z,0.50
2023-06-29T17:14:01.630Z,0.70
2023-06-29T17:16:28.310Z,0.70
2023-06-29T17:18:54.955Z,0.50
2023-06-29T17:21:22.057Z,0.60
2023-06-29T17:23:53.447Z,0.52
2023-06-29T17:26:20.243Z,0.70
2023-06-29T17:28:46.789Z,0.70
2023-06-29T17:31:13.401Z,0.63
2023-06-29T17:33:49.884Z,0.80
2023-06-29T17:36:21.933Z,0.82
2023-06-29T17:38:48.598Z,0.90
2023-06-29T17:41:15.319Z,0.70
2023-06-29T17:43:41.896Z,0.75
2023-06-29T17:46:08.431Z,0.57
2023-06-29T17:48:35.050Z,0.70
2023-06-29T17:51:13.226Z,0.70
2023-06-29T17:53:39.821Z,0.80
2023-06-29T17:56:06.361Z,1.02
2023-06-29T17:58:32.914Z,1.00
2023-06-29T18:00:59.516Z,0.73
2023-06-29T18:03:26.094Z,0.98
2023-06-29T18:05:55.237Z,1.00
2023-06-29T18:08:22.403Z,1.10
2023-06-29T18:10:49.135Z,1.20
2023-06-29T18:13:15.689Z,1.20
2023-06-29T18:15:42.352Z,1.40
2023-06-29T18:18:08.942Z,1.38
2023-06-29T18:20:35.450Z,1.40
2023-06-29T18:23:02.022Z,1.20
2023-06-29T18:25:28.700Z,1.50
2023-06-29T18:27:55.245Z,1.52
2023-06-29T18:30:21.868Z,1.60
2023-06-29T18:32:48.549Z,1.58
2023-06-29T18:35:15.131Z,1.38
2023-06-29T18:37:46.101Z,1.52
2023-06-29T18:40:14.353Z,1.67
2023-06-29T18:42:41.586Z,1.40
2023-06-29T18:45:10.481Z,1.92
2023-06-29T18:47:37.073Z,1.63
2023-06-29T18:50:04.814Z,2.05
2023-06-29T18:52:31.320Z,1.40
2023-06-29T18:54:57.982Z,1.80
2023-06-29T18:57:24.623Z,1.40
2023-06-29T18:59:51.144Z,1.17
2023-06-29T19:02:17.853Z,1.10
2023-06-29T19:04:44.766Z,1.13
2023-06-29T19:07:12.536Z,1.10
2023-06-29T19:09:39.240Z,1.20
2023-06-29T19:12:06.024Z,1.20
2023-06-29T19:14:32.564Z,1.40
2023-06-29T19:16:59.410Z,1.13
2023-06-29T19:19:26.676Z,1.40
2023-06-29T19:21:53.675Z,1.30
2023-06-29T19:24:20.740Z,1.10
2023-06-29T19:26:47.578Z,1.27
2023-06-29T19:29:14.780Z,1.30
2023-06-29T19:31:44.514Z,1.17
2023-06-29T19:34:12.099Z,1.20
2023-06-29T19:36:39.008Z,1.25
2023-06-29T19:39:05.616Z,1.30
2023-06-29T19:41:32.211Z,1.15
2023-06-29T19:43:58.807Z,1.20
2023-06-29T19:46:25.405Z,1.45
2023-06-29T19:48:52.066Z,1.50
2023-06-29T19:51:18.730Z,1.27
2023-06-29T19:53:45.437Z,1.58
2023-06-29T19:56:12.132Z,1.60
2023-06-29T19:58:38.866Z,1.13
2023-06-29T20:01:05.517Z,1.48
2023-06-29T20:03:32.406Z,1.70
2023-06-29T20:05:59.089Z,1.58
2023-06-29T20:08:25.855Z,1.70
2023-06-29T20:10:53.132Z,1.50
2023-06-29T20:13:20.911Z,1.40
2023-06-29T20:15:47.888Z,1.70
2023-06-29T20:18:14.836Z,2.10
2023-06-29T20:20:41.462Z,2.00
2023-06-29T20:23:08.260Z,2.25
2023-06-29T20:25:34.879Z,2.00
2023-06-29T20:28:01.512Z,1.92
2023-06-29T20:30:28.145Z,2.00
2023-06-29T20:32:54.913Z,2.40
2023-06-29T20:35:21.593Z,2.30
2023-06-29T20:37:48.032Z,2.08
2023-06-29T20:40:14.892Z,2.00
2023-06-29T20:42:41.444Z,2.38
2023-06-29T20:45:09.862Z,2.20
2023-06-29T20:47:36.504Z,2.40
2023-06-29T20:50:03.181Z,1.98
2023-06-29T20:52:29.794Z,2.40
2023-06-29T20:54:56.367Z,2.20
2023-06-29T20:57:23.487Z,2.20
2023-06-29T20:59:50.211Z,2.10
2023-06-29T21:02:18.733Z,2.28
2023-06-29T21:04:45.870Z,2.03
2023-06-29T21:07:12.756Z,2.42
2023-06-29T21:09:39.562Z,1.92
2023-06-29T21:12:06.751Z,1.65
2023-06-29T21:14:33.548Z,2.40
2023-06-29T21:17:00.209Z,2.47
2023-06-29T21:19:27.062Z,2.00
2023-06-29T21:21:53.775Z,2.00
2023-06-29T21:24:20.492Z,2.53
2023-06-29T21:26:47.135Z,1.85
2023-06-29T21:29:33.272Z,2.15
2023-06-29T21:32:04.148Z,2.08
2023-06-29T21:34:31.442Z,1.98
2023-06-29T21:36:58.608Z,1.90
2023-06-29T21:39:25.261Z,1.70
2023-06-29T21:41:51.912Z,1.80
2023-06-29T21:44:18.512Z,1.85
2023-06-29T21:46:45.226Z,2.10
2023-06-29T21:49:11.972Z,1.75
2023-06-29T21:51:38.957Z,1.60
2023-06-29T21:54:06.004Z,1.90
2023-06-29T21:56:32.585Z,1.77
2023-06-29T21:58:59.155Z,2.25
2023-06-29T22:01:25.697Z,2.25
2023-06-29T22:03:52.319Z,2.08
2023-06-29T22:06:19.445Z,1.70
2023-06-29T22:08:46.101Z,1.88
2023-06-29T22:11:12.592Z,2.00
2023-06-29T22:13:39.167Z,1.90
2023-06-29T22:16:05.740Z,2.33
2023-06-29T22:18:32.298Z,1.90
2023-06-29T22:20:59.102Z,2.30
2023-06-29T22:23:25.666Z,2.10
2023-06-29T22:25:52.245Z,1.98
2023-06-29T22:28:19.078Z,2.35
2023-06-29T22:30:45.720Z,2.20
2023-06-29T22:33:12.621Z,2.40
2023-06-29T22:35:39.343Z,2.13
2023-06-29T22:38:09.472Z,2.20
2023-06-29T22:40:39.088Z,1.75
2023-06-29T22:43:05.609Z,2.03
2023-06-29T22:45:32.315Z,1.88
2023-06-29T22:47:59.443Z,2.20
2023-06-29T22:50:26.131Z,2.08
2023-06-29T22:52:53.322Z,2.40
2023-06-29T22:55:20.110Z,2.53
2023-06-29T22:57:46.716Z,2.20
2023-06-29T23:00:13.767Z,2.40
2023-06-29T23:02:40.477Z,2.50
2023-06-29T23:05:07.706Z,2.30
2023-06-29T23:07:34.533Z,2.00
2023-06-29T23:10:01.188Z,3.00
2023-06-29T23:12:27.708Z,2.28
2023-06-29T23:14:55.887Z,2.45
2023-06-29T23:17:26.694Z,2.63
2023-06-29T23:19:53.430Z,2.27
2023-06-29T23:22:19.971Z,2.40
2023-06-29T23:24:46.824Z,2.15
2023-06-29T23:27:13.830Z,2.60
2023-06-29T23:29:40.415Z,2.55
2023-06-29T23:32:08.066Z,2.42
2023-06-29T23:34:34.702Z,2.58
2023-06-29T23:37:01.614Z,2.30
2023-06-29T23:39:28.259Z,2.65
2023-06-29T23:41:54.822Z,2.83
2023-06-29T23:44:21.428Z,2.70
2023-06-29T23:46:52.585Z,2.70
2023-06-29T23:49:21.574Z,2.65
2023-06-29T23:51:48.725Z,2.60
2023-06-29T23:54:16.452Z,2.58
2023-06-29T23:56:47.412Z,2.53
2023-06-29T23:59:13.968Z,3.50
